createdAt,value
2018-08-03T00:01:53.569Z,53.54
2018-08-03T00:04:23.704Z,51.78
2018-08-03T00:06:53.735Z,51.26
2018-08-03T00:09:23.851Z,52.79
2018-08-03T00:11:53.927Z,52.80
2018-08-03T00:14:24.099Z,52.55
2018-08-03T00:16:53.937Z,51.27
2018-08-03T00:19:24.200Z,53.52
2018-08-03T00:21:54.187Z,53.35
2018-08-03T00:24:24.235Z,53.68
2018-08-03T00:26:54.409Z,52.94
2018-08-03T00:29:24.295Z,53.10
2018-08-03T00:31:54.507Z,52.76
2018-08-03T00:34:24.556Z,55.77
2018-08-03T00:36:55.883Z,54.86
2018-08-03T00:39:26.110Z,55.82
2018-08-03T00:41:56.654Z,54.98
2018-08-03T00:44:26.473Z,55.80
2018-08-03T00:46:56.780Z,56.36
2018-08-03T00:49:27.019Z,54.61
2018-08-03T00:51:57.239Z,54.16
2018-08-03T00:54:27.274Z,55.25
2018-08-03T00:56:57.099Z,54.37
2018-08-03T00:59:27.111Z,52.21
2018-08-03T01:01:57.303Z,57.21
2018-08-03T01:04:27.433Z,58.25
2018-08-03T01:06:57.396Z,59.75
2018-08-03T01:09:27.590Z,56.51
2018-08-03T01:11:57.750Z,57.03
2018-08-03T01:14:27.836Z,56.21
2018-08-03T01:16:57.699Z,54.61
2018-08-03T01:19:27.833Z,53.49
2018-08-03T01:21:58.016Z,53.51
2018-08-03T01:24:28.104Z,52.65
2018-08-03T01:26:58.271Z,53.76
2018-08-03T01:29:28.126Z,55.48
2018-08-03T01:31:58.167Z,54.38
2018-08-03T01:34:28.163Z,55.64
2018-08-03T01:36:58.033Z,58.76
2018-08-03T01:39:28.133Z,60.52
2018-08-03T01:41:58.103Z,60.08
2018-08-03T01:44:28.154Z,59.69
2018-08-03T01:46:58.505Z,60.22
2018-08-03T01:49:28.631Z,62.11
2018-08-03T01:51:58.825Z,59.17
2018-08-03T01:54:28.740Z,55.68
2018-08-03T01:56:58.990Z,54.38
2018-08-03T01:59:29.042Z,54.52
2018-08-03T02:01:59.022Z,54.26
2018-08-03T02:04:29.162Z,53.04
2018-08-03T02:06:59.190Z,53.96
2018-08-03T02:09:29.193Z,54.73
2018-08-03T02:12:00.373Z,56.83
2018-08-03T02:14:30.577Z,58.81
2018-08-03T02:17:01.807Z,60.12
2018-08-03T02:19:31.822Z,58.65
2018-08-03T02:22:01.820Z,60.95
2018-08-03T02:24:31.764Z,63.12
2018-08-03T02:27:01.949Z,63.25
2018-08-03T02:29:31.982Z,59.37
2018-08-03T02:32:02.163Z,59.24
2018-08-03T02:34:32.435Z,60.46
2018-08-03T02:37:02.472Z,57.75
2018-08-03T02:39:32.686Z,55.12
2018-08-03T02:42:02.849Z,56.00
2018-08-03T02:44:32.852Z,54.88
2018-08-03T02:47:06.133Z,56.63
2018-08-03T02:49:36.307Z,56.95
2018-08-03T02:52:06.500Z,58.41
2018-08-03T02:54:36.531Z,60.28
2018-08-03T02:57:06.641Z,59.96
2018-08-03T02:59:36.698Z,60.62
2018-08-03T03:02:06.874Z,59.60
2018-08-03T03:04:36.642Z,57.83
2018-08-03T03:07:06.742Z,55.31
2018-08-03T03:09:36.596Z,55.58
2018-08-03T03:12:06.791Z,59.43
2018-08-03T03:14:36.988Z,60.37
2018-08-03T03:17:07.066Z,59.13
2018-08-03T03:19:37.119Z,58.40
2018-08-03T03:22:07.246Z,59.19
2018-08-03T03:24:37.285Z,59.65
2018-08-03T03:27:07.327Z,58.54
2018-08-03T03:29:37.462Z,56.57
2018-08-03T03:32:07.488Z,57.38
2018-08-03T03:34:37.323Z,59.83
2018-08-03T03:37:07.607Z,61.59
2018-08-03T03:39:37.816Z,61.70
2018-08-03T03:42:07.907Z,62.73
2018-08-03T03:44:38.159Z,62.19
2018-08-03T03:47:08.883Z,58.97
2018-08-03T03:49:38.942Z,58.05
2018-08-03T03:52:09.006Z,56.02
2018-08-03T03:54:39.023Z,56.30
2018-08-03T03:57:09.051Z,58.27
2018-08-03T03:59:39.054Z,57.23
2018-08-03T04:02:09.121Z,57.18
2018-08-03T04:04:38.909Z,57.25
2018-08-03T04:07:08.906Z,55.51
2018-08-03T04:09:39.030Z,55.57
2018-08-03T04:12:08.860Z,55.97
2018-08-03T04:14:38.885Z,56.26
2018-08-03T04:17:08.840Z,56.81
2018-08-03T04:19:38.857Z,61.00
2018-08-03T04:22:08.898Z,60.74
2018-08-03T04:24:39.268Z,61.13
2018-08-03T04:27:09.750Z,61.50
2018-08-03T04:29:39.762Z,64.17
2018-08-03T04:32:10.010Z,59.36
2018-08-03T04:34:40.155Z,57.73
2018-08-03T04:37:10.233Z,57.77
2018-08-03T04:39:40.214Z,57.87
2018-08-03T04:42:11.285Z,57.36
2018-08-03T04:44:41.289Z,56.85
2018-08-03T04:47:13.448Z,57.37
2018-08-03T04:49:43.346Z,57.26
2018-08-03T04:52:17.486Z,56.49
2018-08-03T04:54:47.620Z,56.37
2018-08-03T04:57:17.761Z,57.13
2018-08-03T04:59:48.089Z,57.27
2018-08-03T05:02:18.931Z,56.82
2018-08-03T05:04:49.391Z,60.62
2018-08-03T05:07:19.483Z,58.92
2018-08-03T05:09:49.647Z,57.78
2018-08-03T05:12:19.919Z,57.88
2018-08-03T05:14:49.955Z,58.69
2018-08-03T05:17:20.149Z,57.59
2018-08-03T05:19:50.061Z,57.29
2018-08-03T05:22:20.616Z,57.19
2018-08-03T05:24:50.766Z,56.39
2018-08-03T05:27:20.564Z,56.95
2018-08-03T05:29:50.376Z,56.90
2018-08-03T05:32:20.542Z,56.42
2018-08-03T05:34:50.808Z,56.90
2018-08-03T05:37:20.803Z,56.60
2018-08-03T05:39:51.495Z,57.28
2018-08-03T05:42:21.446Z,56.67
2018-08-03T05:44:51.302Z,60.57
2018-08-03T05:47:21.198Z,57.88
2018-08-03T05:49:51.282Z,58.22
2018-08-03T05:52:21.461Z,58.82
2018-08-03T05:54:51.622Z,62.51
2018-08-03T05:57:21.711Z,61.39
2018-08-03T05:59:51.767Z,64.32
2018-08-03T06:02:22.016Z,65.90
2018-08-03T06:04:52.102Z,62.73
2018-08-03T06:07:22.167Z,62.37
2018-08-03T06:09:52.419Z,62.53
2018-08-03T06:12:22.615Z,64.02
2018-08-03T06:14:52.535Z,62.58
2018-08-03T06:17:23.185Z,61.84
2018-08-03T06:19:53.290Z,61.01
2018-08-03T06:22:23.115Z,63.67
2018-08-03T06:24:53.427Z,61.74
2018-08-03T06:27:23.508Z,61.09
2018-08-03T06:29:53.535Z,62.45
2018-08-03T06:32:24.411Z,59.90
2018-08-03T06:34:55.066Z,60.68
2018-08-03T06:37:24.993Z,59.96
2018-08-03T06:39:55.244Z,59.47
2018-08-03T06:42:25.459Z,61.50
2018-08-03T06:44:55.751Z,60.37
2018-08-03T06:47:25.577Z,60.84
2018-08-03T06:49:56.432Z,58.94
2018-08-03T06:52:26.693Z,59.45
2018-08-03T06:54:56.900Z,59.12
2018-08-03T06:57:26.974Z,60.13
2018-08-03T06:59:56.995Z,60.51
2018-08-03T07:02:26.786Z,58.66
2018-08-03T07:04:56.944Z,58.38
2018-08-03T07:07:26.970Z,58.28
2018-08-03T07:09:57.190Z,59.11
2018-08-03T07:12:27.236Z,58.73
2018-08-03T07:14:57.462Z,59.04
2018-08-03T07:17:27.251Z,59.45
2018-08-03T07:19:57.402Z,58.91
2018-08-03T07:22:27.590Z,58.90
2018-08-03T07:24:57.729Z,58.35
2018-08-03T07:27:27.969Z,57.52
2018-08-03T07:29:57.968Z,57.40
2018-08-03T07:32:27.993Z,58.18
2018-08-03T07:34:58.009Z,57.51
2018-08-03T07:37:28.163Z,56.87
2018-08-03T07:39:58.334Z,58.10
2018-08-03T07:42:28.312Z,57.26
2018-08-03T07:44:58.592Z,58.13
2018-08-03T07:47:28.679Z,57.77
2018-08-03T07:49:59.600Z,58.41
2018-08-03T07:52:29.915Z,56.81
2018-08-03T07:55:00.394Z,56.87
2018-08-03T07:57:30.263Z,57.96
2018-08-03T08:00:00.669Z,56.92
2018-08-03T08:02:30.805Z,56.28
2018-08-03T08:05:01.073Z,56.54
2018-08-03T08:07:30.912Z,56.69
2018-08-03T08:10:00.759Z,56.96
2018-08-03T08:12:31.012Z,55.72
2018-08-03T08:15:00.862Z,56.08
2018-08-03T08:17:30.841Z,55.20
2018-08-03T08:20:01.314Z,54.85
2018-08-03T08:22:31.367Z,53.91
2018-08-03T08:25:01.631Z,53.16
2018-08-03T08:27:31.981Z,53.68
2018-08-03T08:30:02.248Z,54.06
2018-08-03T08:32:32.250Z,54.38
2018-08-03T08:35:02.114Z,54.41
2018-08-03T08:37:31.949Z,52.34
2018-08-03T08:40:02.003Z,53.21
2018-08-03T08:42:32.298Z,52.61
2018-08-03T08:45:02.457Z,52.65
2018-08-03T08:47:32.543Z,53.43
2018-08-03T08:50:02.855Z,51.96
2018-08-03T08:52:32.987Z,52.20
2018-08-03T08:55:02.801Z,51.72
2018-08-03T08:57:32.777Z,50.39
2018-08-03T09:00:02.831Z,51.04
2018-08-03T09:02:32.638Z,49.50
2018-08-03T09:05:03.075Z,50.59
2018-08-03T09:07:33.085Z,50.58
2018-08-03T09:10:03.149Z,49.61
2018-08-03T09:12:33.290Z,50.21
2018-08-03T09:15:03.349Z,49.54
2018-08-03T09:17:33.547Z,48.43
2018-08-03T09:20:03.969Z,47.84
2018-08-03T09:22:34.042Z,48.44
2018-08-03T09:25:04.402Z,48.99
2018-08-03T09:27:34.830Z,48.51
2018-08-03T09:30:05.719Z,48.77
2018-08-03T09:32:35.910Z,47.35
2018-08-03T09:35:07.164Z,46.32
2018-08-03T09:37:37.411Z,46.25
2018-08-03T09:40:08.053Z,48.05
2018-08-03T09:42:38.295Z,47.46
2018-08-03T09:45:08.427Z,47.12
2018-08-03T09:47:39.397Z,45.82
2018-08-03T09:50:10.118Z,46.78
2018-08-03T09:52:40.627Z,45.36
2018-08-03T09:55:11.217Z,46.71
2018-08-03T09:57:41.460Z,45.90
2018-08-03T10:00:16.306Z,45.75
2018-08-03T10:02:47.046Z,45.09
2018-08-03T10:05:17.106Z,43.77
2018-08-03T10:07:47.255Z,44.75
2018-08-03T10:10:18.301Z,44.47
2018-08-03T10:12:48.394Z,43.20
2018-08-03T10:15:19.336Z,43.31
2018-08-03T10:17:49.480Z,43.07
2018-08-03T10:20:19.257Z,43.11
2018-08-03T10:22:49.141Z,41.80
2018-08-03T10:25:19.134Z,43.26
2018-08-03T10:27:49.151Z,42.96
2018-08-03T10:30:19.370Z,40.55
2018-08-03T10:32:49.434Z,42.76
2018-08-03T10:35:19.315Z,40.26
2018-08-03T10:37:49.283Z,39.61
2018-08-03T10:40:19.824Z,39.13
2018-08-03T10:42:49.587Z,38.96
2018-08-03T10:45:19.383Z,40.08
2018-08-03T10:47:49.262Z,40.49
2018-08-03T10:50:19.655Z,40.03
2018-08-03T10:52:49.717Z,38.93
2018-08-03T10:55:19.820Z,37.10
2018-08-03T10:57:49.516Z,39.21
2018-08-03T11:03:23.269Z,38.12
2018-08-03T11:05:53.584Z,38.37
2018-08-03T11:08:24.469Z,38.49
2018-08-03T11:10:54.631Z,39.29
2018-08-03T11:13:24.783Z,37.65
2018-08-03T11:15:54.687Z,38.90
2018-08-03T11:18:24.764Z,38.22
2018-08-03T11:20:54.587Z,37.06
2018-08-03T11:23:24.435Z,37.64
2018-08-03T11:25:54.607Z,37.98
2018-08-03T11:28:24.848Z,37.23
2018-08-03T11:30:54.628Z,35.93
2018-08-03T11:33:24.689Z,36.66
2018-08-03T11:35:55.354Z,37.39
2018-08-03T11:38:25.575Z,36.75
2018-08-03T11:40:55.898Z,35.70
2018-08-03T11:43:25.890Z,35.21
2018-08-03T11:45:56.004Z,35.22
2018-08-03T11:48:26.014Z,35.66
2018-08-03T11:50:55.998Z,35.42
2018-08-03T11:53:27.163Z,35.86
2018-08-03T11:55:56.999Z,33.92
2018-08-03T11:58:27.179Z,34.31
2018-08-03T12:00:58.198Z,33.23
2018-08-03T12:03:28.060Z,33.34
2018-08-03T12:05:58.094Z,34.41
2018-08-03T12:08:28.294Z,35.19
2018-08-03T12:10:58.269Z,34.65
2018-08-03T12:13:28.398Z,33.72
2018-08-03T12:15:58.493Z,33.57
2018-08-03T12:18:28.535Z,34.75
2018-08-03T12:20:58.589Z,33.30
2018-08-03T12:23:28.877Z,34.64
2018-08-03T12:25:58.825Z,32.76
2018-08-03T12:28:28.902Z,32.73
2018-08-03T12:30:58.802Z,31.37
2018-08-03T12:33:28.902Z,32.03
2018-08-03T12:40:11.863Z,33.10
2018-08-03T12:42:41.950Z,32.06
2018-08-03T12:45:11.931Z,30.69
2018-08-03T12:47:41.883Z,30.97
2018-08-03T12:50:11.706Z,31.36
2018-08-03T12:52:45.103Z,31.22
2018-08-03T12:55:14.980Z,31.79
2018-08-03T12:57:44.970Z,31.38
2018-08-03T13:00:14.924Z,30.98
2018-08-03T13:02:44.672Z,31.78
2018-08-03T13:05:14.531Z,32.39
2018-08-03T13:07:44.442Z,30.86
2018-08-03T13:10:14.268Z,30.68
2018-08-03T13:12:44.014Z,31.15
2018-08-03T13:15:15.934Z,30.69
2018-08-03T13:17:45.910Z,30.99
2018-08-03T13:20:15.859Z,31.26
2018-08-03T13:22:46.259Z,31.42
2018-08-03T13:25:17.132Z,29.74
2018-08-03T13:27:47.167Z,30.28
2018-08-03T13:30:16.999Z,29.63
2018-08-03T13:32:48.263Z,30.05
2018-08-03T13:35:18.245Z,30.76
2018-08-03T13:37:48.195Z,30.39
2018-08-03T13:40:18.076Z,30.95
2018-08-03T13:42:48.128Z,29.97
2018-08-03T13:45:17.951Z,29.62
2018-08-03T13:47:47.863Z,29.60
2018-08-03T13:50:17.979Z,29.23
2018-08-03T13:52:48.011Z,29.96
2018-08-03T13:55:17.956Z,29.18
2018-08-03T13:57:48.169Z,30.33
2018-08-03T14:00:18.091Z,30.61
2018-08-03T14:02:48.113Z,28.49
2018-08-03T14:05:18.017Z,30.00
2018-08-03T14:07:47.935Z,29.25
2018-08-03T14:10:18.047Z,30.06
2018-08-03T14:12:47.939Z,28.55
2018-08-03T14:15:18.181Z,28.43
2018-08-03T14:17:48.135Z,28.92
2018-08-03T14:20:18.193Z,29.38
2018-08-03T14:22:48.300Z,29.16
2018-08-03T14:25:18.224Z,30.07
2018-08-03T14:27:48.033Z,28.91
2018-08-03T14:30:17.914Z,29.84
2018-08-03T14:32:47.770Z,29.89
2018-08-03T14:35:22.779Z,30.04
2018-08-03T14:37:52.849Z,30.37
2018-08-03T14:40:24.402Z,29.92
2018-08-03T14:42:55.762Z,30.29
2018-08-03T14:45:27.194Z,30.59
2018-08-03T14:47:57.021Z,30.91
2018-08-03T14:50:28.090Z,29.76
2018-08-03T14:52:58.141Z,29.79
2018-08-03T14:55:28.014Z,29.49
2018-08-03T14:57:58.209Z,28.56
2018-08-03T15:00:28.540Z,28.49
2018-08-03T15:02:58.624Z,28.87
2018-08-03T15:05:28.883Z,29.33
2018-08-03T15:07:59.517Z,28.39
2018-08-03T15:10:29.558Z,29.19
2018-08-03T15:12:59.391Z,27.57
2018-08-03T15:15:29.761Z,28.14
2018-08-03T15:17:59.912Z,29.54
2018-08-03T15:20:30.139Z,27.58
2018-08-03T15:23:00.583Z,27.69
2018-08-03T15:25:30.656Z,28.77
2018-08-03T15:28:08.577Z,27.45
2018-08-03T15:30:38.690Z,27.70
2018-08-03T15:33:09.043Z,28.35
2018-08-03T15:35:38.967Z,28.29
2018-08-03T15:38:08.974Z,28.93
2018-08-03T15:40:38.935Z,27.45
2018-08-03T15:43:08.764Z,28.26
2018-08-03T15:45:38.567Z,28.53
2018-08-03T15:48:08.701Z,29.01
2018-08-03T15:50:38.826Z,27.64
2018-08-03T15:53:08.606Z,28.21
2018-08-03T15:55:38.662Z,28.10
2018-08-03T15:58:08.750Z,29.07
2018-08-03T16:00:38.800Z,27.68
2018-08-03T16:03:09.131Z,26.84
2018-08-03T16:05:39.190Z,27.77
2018-08-03T16:08:08.982Z,27.22
2018-08-03T16:10:38.816Z,27.68
2018-08-03T16:13:09.026Z,27.60
2018-08-03T16:15:38.957Z,26.69
2018-08-03T16:18:08.821Z,27.14
2018-08-03T16:20:38.799Z,27.81
2018-08-03T16:23:08.682Z,26.93
2018-08-03T16:25:38.697Z,27.31
2018-08-03T16:28:08.576Z,27.40
2018-08-03T16:30:38.478Z,27.61
2018-08-03T16:33:08.550Z,27.36
2018-08-03T16:35:38.516Z,27.85
2018-08-03T16:38:08.418Z,28.28
2018-08-03T16:40:38.251Z,27.74
2018-08-03T16:43:08.408Z,27.40
2018-08-03T16:45:39.528Z,26.84
2018-08-03T16:48:09.584Z,27.78
2018-08-03T16:50:39.527Z,28.16
2018-08-03T16:53:09.669Z,27.93
2018-08-03T16:55:40.151Z,27.84
2018-08-03T16:58:10.227Z,27.30
2018-08-03T17:00:40.307Z,27.39
2018-08-03T17:03:12.433Z,27.78
2018-08-03T17:05:42.496Z,28.21
2018-08-03T17:08:12.549Z,27.76
2018-08-03T17:10:43.622Z,27.89
2018-08-03T17:13:13.922Z,28.55
2018-08-03T17:15:43.924Z,27.35
2018-08-03T17:18:13.876Z,27.41
2018-08-03T17:20:44.073Z,28.84
2018-08-03T17:23:15.060Z,28.66
2018-08-03T17:25:45.139Z,28.18
2018-08-03T17:28:14.981Z,27.88
2018-08-03T17:30:45.370Z,28.38
2018-08-03T17:33:39.065Z,27.54
2018-08-03T17:36:09.810Z,29.04
2018-08-03T17:38:39.779Z,28.17
2018-08-03T17:41:10.258Z,29.32
2018-08-03T17:43:40.730Z,28.03
2018-08-03T17:46:12.742Z,29.83
2018-08-03T17:48:42.863Z,29.97
2018-08-03T17:51:13.070Z,29.60
2018-08-03T17:53:43.231Z,30.24
2018-08-03T17:56:13.311Z,30.29
2018-08-03T17:58:46.808Z,30.96
2018-08-03T18:01:17.612Z,31.21
2018-08-03T18:03:52.482Z,30.77
2018-08-03T18:06:22.935Z,31.78
2018-08-03T18:08:53.365Z,31.58
2018-08-03T18:11:46.140Z,32.36
2018-08-03T18:14:40.252Z,32.51
2018-08-03T18:17:10.351Z,31.37
2018-08-03T18:22:52.815Z,32.34
2018-08-03T18:28:28.410Z,32.60
2018-08-03T18:31:26.289Z,33.08
2018-08-03T18:33:58.469Z,35.09
2018-08-03T18:36:29.019Z,33.86
2018-08-03T18:39:00.125Z,33.80
2018-08-03T18:41:30.187Z,33.85
2018-08-03T18:44:00.790Z,34.87
2018-08-03T18:46:31.161Z,34.97
2018-08-03T18:49:05.924Z,35.13
2018-08-03T18:51:36.158Z,35.07
2018-08-03T18:54:29.805Z,35.29
2018-08-03T18:57:00.083Z,35.33
2018-08-03T18:59:35.648Z,35.89
2018-08-03T19:02:05.999Z,34.82
2018-08-03T19:04:37.813Z,36.47
2018-08-03T19:07:14.687Z,36.12
2018-08-03T19:09:46.528Z,35.92
2018-08-03T19:12:28.342Z,36.41
2018-08-03T19:15:05.147Z,36.61
2018-08-03T19:17:36.446Z,36.22
2018-08-03T19:20:18.703Z,37.45
2018-08-03T19:23:06.953Z,37.80
2018-08-03T19:25:38.376Z,37.98
2018-08-03T19:28:08.522Z,37.55
2018-08-03T19:30:38.744Z,38.29
2018-08-03T19:36:19.338Z,39.20
2018-08-03T19:38:50.601Z,38.74
2018-08-03T19:41:21.240Z,38.89
2018-08-03T19:43:51.239Z,39.37
2018-08-03T19:46:21.288Z,39.31
2018-08-03T19:48:56.468Z,39.03
2018-08-03T19:51:35.158Z,38.91
2018-08-03T19:54:07.194Z,39.10
2018-08-03T19:56:39.821Z,40.29
2018-08-03T19:59:11.302Z,39.55
2018-08-03T20:01:41.499Z,40.65
2018-08-03T20:04:26.090Z,40.17
2018-08-03T20:06:56.315Z,41.90
2018-08-03T20:09:26.218Z,42.26
2018-08-03T20:11:57.119Z,41.94
2018-08-03T20:14:31.381Z,42.42
2018-08-03T20:17:01.503Z,42.12
2018-08-03T20:19:31.564Z,42.00
2018-08-03T20:22:18.630Z,42.61
2018-08-03T20:24:48.523Z,41.50
2018-08-03T20:27:18.563Z,41.94
2018-08-03T20:29:48.640Z,42.55
2018-08-03T20:32:18.873Z,43.01
2018-08-03T20:34:48.844Z,43.41
2018-08-03T20:37:19.110Z,42.25
2018-08-03T20:39:48.956Z,44.71
2018-08-03T20:42:20.360Z,45.01
2018-08-03T20:44:50.623Z,43.84
2018-08-03T20:47:25.687Z,45.66
2018-08-03T20:49:56.129Z,46.38
2018-08-03T20:52:32.235Z,46.63
2018-08-03T20:55:02.167Z,45.31
2018-08-03T20:57:32.219Z,45.12
2018-08-03T21:00:02.071Z,45.84
2018-08-03T21:02:32.298Z,44.56
2018-08-03T21:05:02.293Z,44.12
2018-08-03T21:07:32.047Z,44.16
2018-08-03T21:10:01.839Z,46.23
2018-08-03T21:12:31.927Z,46.57
2018-08-03T21:15:01.879Z,45.88
2018-08-03T21:17:32.119Z,46.08
2018-08-03T21:20:02.121Z,46.36
2018-08-03T21:22:32.229Z,46.33
2018-08-03T21:25:02.124Z,45.21
2018-08-03T21:27:32.030Z,44.99
2018-08-03T21:30:01.852Z,45.70
2018-08-03T21:32:31.782Z,46.70
2018-08-03T21:35:03.612Z,44.18
2018-08-03T21:37:35.522Z,44.31
2018-08-03T21:40:06.000Z,43.50
2018-08-03T21:42:36.296Z,43.32
2018-08-03T21:45:07.119Z,43.64
2018-08-03T21:47:37.289Z,44.61
2018-08-03T21:50:07.287Z,43.97
2018-08-03T21:52:37.338Z,45.44
2018-08-03T21:55:07.334Z,45.42
2018-08-03T21:57:37.401Z,45.61
2018-08-03T22:00:14.771Z,46.90
2018-08-03T22:02:44.738Z,47.07
2018-08-03T22:05:15.023Z,45.13
2018-08-03T22:07:45.074Z,45.74
2018-08-03T22:10:14.869Z,46.39
2018-08-03T22:12:44.826Z,46.76
2018-08-03T22:15:18.523Z,47.50
2018-08-03T22:17:48.594Z,46.26
2018-08-03T22:20:18.778Z,45.99
2018-08-03T22:22:48.742Z,45.43
2018-08-03T22:25:18.690Z,44.70
2018-08-03T22:27:48.724Z,44.49
2018-08-03T22:30:18.575Z,46.35
2018-08-03T22:32:48.335Z,46.72
2018-08-03T22:35:18.148Z,47.70
2018-08-03T22:37:48.125Z,48.80
2018-08-03T22:40:18.698Z,48.64
2018-08-03T22:42:48.617Z,48.43
2018-08-03T22:45:18.630Z,47.89
2018-08-03T22:47:48.660Z,47.75
2018-08-03T22:50:18.731Z,48.34
2018-08-03T22:52:48.676Z,47.11
2018-08-03T22:55:18.438Z,49.74
2018-08-03T22:57:48.574Z,49.46
2018-08-03T23:00:18.970Z,48.63
2018-08-03T23:02:48.800Z,49.63
2018-08-03T23:05:18.816Z,48.58
2018-08-03T23:07:48.779Z,48.26
2018-08-03T23:10:18.512Z,48.45
2018-08-03T23:12:48.638Z,47.09
2018-08-03T23:15:18.596Z,47.28
2018-08-03T23:17:48.590Z,48.33
2018-08-03T23:20:18.501Z,48.48
2018-08-03T23:22:48.308Z,50.11
2018-08-03T23:25:18.854Z,49.82
2018-08-03T23:27:48.738Z,49.15
2018-08-03T23:30:18.587Z,48.70
2018-08-03T23:32:48.379Z,49.09
2018-08-03T23:35:18.342Z,47.92
2018-08-03T23:37:48.193Z,48.64
2018-08-03T23:40:18.065Z,47.97
2018-08-03T23:42:48.042Z,47.85
2018-08-03T23:45:29.431Z,50.25
2018-08-03T23:47:59.655Z,49.64
2018-08-03T23:50:35.167Z,50.85
2018-08-03T23:53:05.230Z,52.21
2018-08-03T23:55:35.262Z,52.90
2018-08-03T23:58:05.266Z,51.89
